sensor_id;sensor_type;location;lat;lon;timestamp;P1;durP1;ratioP1;P2;durP2;ratioP2
16177;SDS011;8195;51.220;9.746;2023-04-07T00:03:35;8.50;;;7.70;;
16177;SDS011;8195;51.220;9.746;2023-04-07T00:13:55;8.93;;;7.53;;
16177;SDS011;8195;51.220;9.746;2023-04-07T00:24:17;9.63;;;8.40;;
16177;SDS011;8195;51.220;9.746;2023-04-07T00:34:38;10.60;;;8.53;;
16177;SDS011;8195;51.220;9.746;2023-04-07T00:44:59;9.97;;;8.97;;
16177;SDS011;8195;51.220;9.746;2023-04-07T00:55:20;9.90;;;8.90;;
16177;SDS011;8195;51.220;9.746;2023-04-07T01:05:44;9.63;;;8.63;;
16177;SDS011;8195;51.220;9.746;2023-04-07T01:26:49;10.17;;;8.30;;
16177;SDS011;8195;51.220;9.746;2023-04-07T01:37:11;8.97;;;7.93;;
16177;SDS011;8195;51.220;9.746;2023-04-07T01:47:34;9.07;;;7.53;;
16177;SDS011;8195;51.220;9.746;2023-04-07T01:57:56;8.97;;;8.07;;
16177;SDS011;8195;51.220;9.746;2023-04-07T02:08:17;8.30;;;7.50;;
16177;SDS011;8195;51.220;9.746;2023-04-07T02:18:40;8.33;;;7.53;;
16177;SDS011;8195;51.220;9.746;2023-04-07T02:29:03;7.83;;;7.13;;
16177;SDS011;8195;51.220;9.746;2023-04-07T02:39:24;8.70;;;7.90;;
16177;SDS011;8195;51.220;9.746;2023-04-07T02:49:45;10.10;;;8.80;;
16177;SDS011;8195;51.220;9.746;2023-04-07T03:00:06;9.70;;;8.30;;
16177;SDS011;8195;51.220;9.746;2023-04-07T03:10:28;9.33;;;8.37;;
16177;SDS011;8195;51.220;9.746;2023-04-07T03:20:49;10.97;;;8.90;;
16177;SDS011;8195;51.220;9.746;2023-04-07T03:31:10;10.17;;;9.03;;
16177;SDS011;8195;51.220;9.746;2023-04-07T03:41:31;9.70;;;8.60;;
16177;SDS011;8195;51.220;9.746;2023-04-07T03:51:52;13.53;;;10.30;;
16177;SDS011;8195;51.220;9.746;2023-04-07T04:02:13;10.67;;;9.40;;
16177;SDS011;8195;51.220;9.746;2023-04-07T04:12:34;12.03;;;9.83;;
16177;SDS011;8195;51.220;9.746;2023-04-07T04:22:55;12.53;;;11.23;;
16177;SDS011;8195;51.220;9.746;2023-04-07T04:33:16;11.40;;;10.20;;
16177;SDS011;8195;51.220;9.746;2023-04-07T04:43:37;12.40;;;10.40;;
16177;SDS011;8195;51.220;9.746;2023-04-07T04:53:57;12.93;;;11.40;;
16177;SDS011;8195;51.220;9.746;2023-04-07T05:04:18;11.30;;;10.20;;
16177;SDS011;8195;51.220;9.746;2023-04-07T05:14:39;14.70;;;11.73;;
16177;SDS011;8195;51.220;9.746;2023-04-07T05:25:01;12.43;;;11.13;;
16177;SDS011;8195;51.220;9.746;2023-04-07T05:35:22;15.03;;;11.73;;
16177;SDS011;8195;51.220;9.746;2023-04-07T05:45:42;13.70;;;12.10;;
16177;SDS011;8195;51.220;9.746;2023-04-07T05:56:03;14.17;;;11.20;;
16177;SDS011;8195;51.220;9.746;2023-04-07T06:06:25;14.03;;;12.27;;
16177;SDS011;8195;51.220;9.746;2023-04-07T06:16:45;12.40;;;11.27;;
16177;SDS011;8195;51.220;9.746;2023-04-07T06:27:06;11.77;;;10.57;;
16177;SDS011;8195;51.220;9.746;2023-04-07T06:37:27;12.47;;;11.17;;
16177;SDS011;8195;51.220;9.746;2023-04-07T06:47:48;11.87;;;10.87;;
16177;SDS011;8195;51.220;9.746;2023-04-07T06:58:10;12.33;;;11.13;;
16177;SDS011;8195;51.220;9.746;2023-04-07T07:08:56;12.07;;;10.90;;
16177;SDS011;8195;51.220;9.746;2023-04-07T07:19:22;13.10;;;11.87;;
16177;SDS011;8195;51.220;9.746;2023-04-07T07:29:56;13.10;;;11.90;;
16177;SDS011;8195;51.220;9.746;2023-04-07T07:40:53;13.53;;;12.23;;
16177;SDS011;8195;51.220;9.746;2023-04-07T07:51:17;13.40;;;12.30;;
16177;SDS011;8195;51.220;9.746;2023-04-07T08:01:41;13.93;;;12.70;;
16177;SDS011;8195;51.220;9.746;2023-04-07T08:12:13;13.97;;;12.67;;
16177;SDS011;8195;51.220;9.746;2023-04-07T08:22:43;13.37;;;12.07;;
16177;SDS011;8195;51.220;9.746;2023-04-07T08:33:07;13.60;;;12.33;;
16177;SDS011;8195;51.220;9.746;2023-04-07T08:43:28;13.73;;;12.53;;
16177;SDS011;8195;51.220;9.746;2023-04-07T08:53:50;14.60;;;13.30;;
16177;SDS011;8195;51.220;9.746;2023-04-07T09:04:13;16.60;;;15.10;;
16177;SDS011;8195;51.220;9.746;2023-04-07T09:14:34;16.67;;;15.17;;
16177;SDS011;8195;51.220;9.746;2023-04-07T09:25:08;17.67;;;15.97;;
16177;SDS011;8195;51.220;9.746;2023-04-07T09:35:37;16.67;;;15.07;;
16177;SDS011;8195;51.220;9.746;2023-04-07T09:46:19;18.17;;;16.37;;
16177;SDS011;8195;51.220;9.746;2023-04-07T09:56:48;17.77;;;16.07;;
16177;SDS011;8195;51.220;9.746;2023-04-07T10:07:12;16.87;;;15.17;;
16177;SDS011;8195;51.220;9.746;2023-04-07T10:17:35;16.73;;;15.17;;
16177;SDS011;8195;51.220;9.746;2023-04-07T10:27:59;16.53;;;15.10;;
16177;SDS011;8195;51.220;9.746;2023-04-07T10:49:29;15.70;;;14.20;;
16177;SDS011;8195;51.220;9.746;2023-04-07T11:22:14;15.57;;;14.23;;
16177;SDS011;8195;51.220;9.746;2023-04-07T11:55:03;15.17;;;13.87;;
16177;SDS011;8195;51.220;9.746;2023-04-07T12:05:45;15.60;;;14.17;;
16177;SDS011;8195;51.220;9.746;2023-04-07T12:27:03;14.40;;;13.00;;
16177;SDS011;8195;51.220;9.746;2023-04-07T13:00:20;13.20;;;12.00;;
16177;SDS011;8195;51.220;9.746;2023-04-07T13:10:43;14.07;;;12.77;;
16177;SDS011;8195;51.220;9.746;2023-04-07T13:21:08;13.73;;;12.43;;
16177;SDS011;8195;51.220;9.746;2023-04-07T13:32:11;14.53;;;13.23;;
16177;SDS011;8195;51.220;9.746;2023-04-07T13:42:56;13.13;;;11.83;;
16177;SDS011;8195;51.220;9.746;2023-04-07T13:53:23;14.07;;;12.67;;
16177;SDS011;8195;51.220;9.746;2023-04-07T14:03:44;13.53;;;12.23;;
16177;SDS011;8195;51.220;9.746;2023-04-07T14:14:40;12.83;;;11.70;;
16177;SDS011;8195;51.220;9.746;2023-04-07T14:25:01;12.27;;;11.07;;
16177;SDS011;8195;51.220;9.746;2023-04-07T14:45:58;13.63;;;12.20;;
16177;SDS011;8195;51.220;9.746;2023-04-07T14:56:19;13.37;;;12.07;;
16177;SDS011;8195;51.220;9.746;2023-04-07T15:06:40;13.63;;;12.23;;
16177;SDS011;8195;51.220;9.746;2023-04-07T15:17:03;13.37;;;12.17;;
16177;SDS011;8195;51.220;9.746;2023-04-07T15:28:06;14.00;;;12.60;;
16177;SDS011;8195;51.220;9.746;2023-04-07T15:38:36;14.67;;;11.53;;
16177;SDS011;8195;51.220;9.746;2023-04-07T15:49:03;14.07;;;12.67;;
16177;SDS011;8195;51.220;9.746;2023-04-07T15:59:25;14.93;;;13.53;;
16177;SDS011;8195;51.220;9.746;2023-04-07T16:10:06;13.27;;;12.00;;
16177;SDS011;8195;51.220;9.746;2023-04-07T16:20:27;13.07;;;11.87;;
16177;SDS011;8195;51.220;9.746;2023-04-07T16:30:48;13.67;;;12.37;;
16177;SDS011;8195;51.220;9.746;2023-04-07T16:41:19;20.97;;;19.30;;
16177;SDS011;8195;51.220;9.746;2023-04-07T16:51:57;13.13;;;11.93;;
16177;SDS011;8195;51.220;9.746;2023-04-07T17:02:26;12.80;;;11.70;;
16177;SDS011;8195;51.220;9.746;2023-04-07T17:12:56;12.47;;;11.40;;
16177;SDS011;8195;51.220;9.746;2023-04-07T17:23:18;14.23;;;12.93;;
16177;SDS011;8195;51.220;9.746;2023-04-07T17:33:50;17.40;;;15.80;;
16177;SDS011;8195;51.220;9.746;2023-04-07T17:44:31;12.83;;;11.63;;
16177;SDS011;8195;51.220;9.746;2023-04-07T17:54:52;12.70;;;11.50;;
16177;SDS011;8195;51.220;9.746;2023-04-07T18:05:13;13.93;;;12.63;;
16177;SDS011;8195;51.220;9.746;2023-04-07T18:15:34;13.50;;;12.27;;
16177;SDS011;8195;51.220;9.746;2023-04-07T18:26:00;17.17;;;15.77;;
16177;SDS011;8195;51.220;9.746;2023-04-07T18:36:24;14.53;;;13.23;;
16177;SDS011;8195;51.220;9.746;2023-04-07T18:46:51;15.57;;;13.93;;
16177;SDS011;8195;51.220;9.746;2023-04-07T18:57:19;14.93;;;13.47;;
16177;SDS011;8195;51.220;9.746;2023-04-07T19:18:26;14.90;;;13.30;;
16177;SDS011;8195;51.220;9.746;2023-04-07T19:28:48;14.63;;;13.23;;
16177;SDS011;8195;51.220;9.746;2023-04-07T19:39:13;14.67;;;13.27;;
16177;SDS011;8195;51.220;9.746;2023-04-07T19:49:48;14.77;;;13.33;;
16177;SDS011;8195;51.220;9.746;2023-04-07T20:00:40;13.43;;;12.03;;
16177;SDS011;8195;51.220;9.746;2023-04-07T20:21:36;12.57;;;11.23;;
16177;SDS011;8195;51.220;9.746;2023-04-07T20:31:58;12.40;;;11.17;;
16177;SDS011;8195;51.220;9.746;2023-04-07T20:42:26;13.10;;;11.80;;
16177;SDS011;8195;51.220;9.746;2023-04-07T20:52:50;12.90;;;11.70;;
16177;SDS011;8195;51.220;9.746;2023-04-07T21:03:14;13.57;;;12.27;;
16177;SDS011;8195;51.220;9.746;2023-04-07T21:13:36;14.33;;;12.90;;
16177;SDS011;8195;51.220;9.746;2023-04-07T21:23:57;12.87;;;11.63;;
16177;SDS011;8195;51.220;9.746;2023-04-07T21:34:18;11.93;;;10.83;;
16177;SDS011;8195;51.220;9.746;2023-04-07T21:44:39;12.30;;;11.00;;
16177;SDS011;8195;51.220;9.746;2023-04-07T21:55:01;10.37;;;9.43;;
16177;SDS011;8195;51.220;9.746;2023-04-07T22:05:24;11.63;;;10.43;;
16177;SDS011;8195;51.220;9.746;2023-04-07T22:15:45;11.53;;;10.33;;
16177;SDS011;8195;51.220;9.746;2023-04-07T22:26:06;11.73;;;10.63;;
16177;SDS011;8195;51.220;9.746;2023-04-07T22:36:27;11.30;;;10.20;;
16177;SDS011;8195;51.220;9.746;2023-04-07T22:46:48;11.13;;;10.07;;
16177;SDS011;8195;51.220;9.746;2023-04-07T22:57:09;12.20;;;11.00;;
16177;SDS011;8195;51.220;9.746;2023-04-07T23:07:30;12.00;;;10.80;;
16177;SDS011;8195;51.220;9.746;2023-04-07T23:17:51;12.67;;;11.43;;
16177;SDS011;8195;51.220;9.746;2023-04-07T23:28:12;11.93;;;10.73;;
16177;SDS011;8195;51.220;9.746;2023-04-07T23:38:33;11.97;;;10.83;;
16177;SDS011;8195;51.220;9.746;2023-04-07T23:48:54;12.50;;;10.47;;
16177;SDS011;8195;51.220;9.746;2023-04-07T23:59:15;12.40;;;11.17;;
